Aérodrome :
LOGIN :

S'inscrire | Disclaimer

   EN    FR    IT 

 










Légende :    VFR   VFR Marginal   IFR   IFR Intensif   IFR Très Intensif
Visi : 
Plafond : 
>= 8 km
>= 3000ft
5 à 8 km
1000 à 3000 ft
1500m à 5 km
500 à 1000 ft
800 à 1500m
200 à 500 ft
< 800m
< 200 ft
Symboles :   Orages  Brouillard  Fortes neiges  Fortes précipitations  Vent > 20 kt
SIGMETs :   Divers  Orages  Givrage  Turbulence  Onde Orograph.  Cendres Volcan.







- Altitude de l'aérodrome : 436 ft
- Code IATA : ANG
- Voir les cartes d'approche


LFBU - Angoulême Brie Champniers

DERNIER METAR :
  • 181930Z AUTO 14005KT 110V170 9999 OVC026 07/05 Q1021 BECMG BKN013

METARs EXPIRÉS :
  • 181900Z AUTO 13003KT 070V160 9999 OVC029 07/05 Q1021 BECMG BKN013
  • 181830Z AUTO 13004KT 100V160 9999 FEW025 OVC030 07/05 Q1021 BECMG BKN013
  • 181800Z AUTO 14004KT 090V170 9999 BKN025 OVC032 07/05 Q1021 BECMG BKN013
  • 181730Z AUTO 13006KT 100V160 9999 SCT014 OVC025 07/05 Q1021 BECMG BKN013
  • 181700Z AUTO 13005KT 090V170 9999 BKN013 OVC020 07/05 Q1021 TEMPO 4000 -DZ BKN008 OVC015

TAF TAF LFBU
Valide du 18 à 18h jusqu'au 19 à 18h UTC


181700Z 1818/1918 14007KT 9999 BKN013
BECMG 1901/1903 3000 BR NSC
PROB30
TEMPO 1905/1908 0500 FG VV///
BECMG 1908/1910 CAVOK
BECMG 1915/1917 4500 -RA BKN013
Pas de NOTAMs connus pour ce terrain.



MET'MAP, la Météo Aéronautique d'un coup d'oeil ! - Copyright ORBIFLY Décembre 2007 - Disclaimer

ORBIFLY MET'MAP TEAM :

Programmation & Développement : Alexandra Zaïnal
Conception & Développement : Baudouin d'Aumeries
Co-Programmation & Développement : Marc-Olivier Méhu
Soutien technique & logistique : Manuel Goepfert

Contact : metmap@orbifly.com




SOURCES & CREDITS :

   NOAA